Time;durP1;ratioP1;P1;durP2;ratioP2;P2;SDS_P1;SDS_P2;PMS_P1;PMS_P2;Temp;Humidity;BMP_temperature;BMP_pressure;BME280_temperature;BME280_humidity;BME280_pressure;Samples;Min_cycle;Max_cycle;Signal;HPM_P1;HPM_P2
2020/12/05 00:00:52;;;;;;;11.23;8.95;;;;;;;4.31;78.31;96421.03;5094612;28;20047;-66
2020/12/05 00:03:18;;;;;;;11.38;9.23;;;;;;;4.39;78.09;96431.22;5094568;28;20105;-66
2020/12/05 00:05:47;;;;;;;13.18;9.63;;;;;;;4.44;77.95;96441.88;5094679;28;20047;-66
2020/12/05 00:08:14;;;;;;;14.50;10.52;;;;;;;4.52;78.12;96445.25;5094224;28;20194;-66
2020/12/05 00:10:41;;;;;;;11.52;9.43;;;;;;;4.63;77.93;96461.06;5094483;28;20055;-66
2020/12/05 00:13:07;;;;;;;13.57;10.35;;;;;;;4.74;77.79;96459.59;5094477;28;20486;-66
2020/12/05 00:15:34;;;;;;;12.85;9.30;;;;;;;4.74;77.67;96464.84;5094357;28;20044;-66
2020/12/05 00:18:02;;;;;;;16.42;11.45;;;;;;;4.83;77.65;96470.59;5094200;28;20040;-66
2020/12/05 00:20:28;;;;;;;19.77;12.27;;;;;;;4.86;77.62;96470.19;5094292;28;20048;-66
2020/12/05 00:22:55;;;;;;;20.00;13.38;;;;;;;4.90;77.45;96477.41;5094349;28;20505;-66
2020/12/05 00:25:22;;;;;;;22.75;15.60;;;;;;;4.83;76.87;96462.75;5094548;28;20040;-66
2020/12/05 00:27:49;;;;;;;17.17;12.65;;;;;;;4.72;76.92;96466.84;5094131;28;20387;-66
2020/12/05 00:30:15;;;;;;;12.68;10.10;;;;;;;4.69;77.60;96467.25;5093255;28;20143;-66
2020/12/05 00:32:42;;;;;;;14.35;11.02;;;;;;;4.84;77.74;96473.00;5094511;28;20643;-66
2020/12/05 00:35:10;;;;;;;13.55;10.32;;;;;;;4.83;77.22;96473.22;5094243;28;20040;-66
2020/12/05 00:37:36;;;;;;;15.77;11.43;;;;;;;4.79;77.00;96477.28;5093612;28;20057;-66
2020/12/05 00:40:05;;;;;;;15.48;10.98;;;;;;;4.66;77.29;96478.97;5094569;28;20044;-66
2020/12/05 00:42:31;;;;;;;16.00;11.50;;;;;;;4.63;77.67;96489.06;5094453;28;20036;-66
2020/12/05 00:44:58;;;;;;;14.60;10.57;;;;;;;4.70;77.98;96495.06;5093845;28;20048;-66
2020/12/05 00:47:28;;;;;;;16.67;10.98;;;;;;;4.83;78.00;96496.78;5092508;28;20040;-67
2020/12/05 00:49:56;;;;;;;15.63;11.55;;;;;;;4.88;77.70;96507.41;5093029;28;20422;-65
2020/12/05 00:52:24;;;;;;;15.18;11.02;;;;;;;4.86;77.63;96505.00;5092624;28;20413;-66
2020/12/05 00:54:51;;;;;;;16.65;11.50;;;;;;;4.85;77.42;96510.44;5093751;28;20036;-66
2020/12/05 00:57:18;;;;;;;16.80;11.07;;;;;;;4.80;77.42;96508.47;5092398;28;20078;-66
2020/12/05 00:59:45;;;;;;;16.73;12.50;;;;;;;4.72;77.36;96500.88;5093681;28;20071;-66
2020/12/05 01:02:12;;;;;;;14.82;11.85;;;;;;;4.63;77.49;96496.91;5093756;28;20042;-66
2020/12/05 01:04:38;;;;;;;17.33;12.77;;;;;;;4.59;77.62;96504.38;5092582;28;20043;-66
2020/12/05 01:07:05;;;;;;;17.75;12.60;;;;;;;4.53;77.65;96505.22;5093484;28;20040;-67
2020/12/05 01:09:33;;;;;;;15.88;12.05;;;;;;;4.50;78.17;96504.84;5093541;28;20047;-66
2020/12/05 01:11:59;;;;;;;16.70;11.98;;;;;;;4.51;78.34;96515.09;5093735;28;20496;-66
2020/12/05 01:14:26;;;;;;;15.82;11.70;;;;;;;4.48;78.49;96518.13;5093474;28;20046;-66
2020/12/05 01:16:54;;;;;;;15.00;11.27;;;;;;;4.54;78.48;96526.97;5093136;28;20417;-66
2020/12/05 01:19:20;;;;;;;14.77;11.10;;;;;;;4.63;78.66;96516.03;5093338;28;20085;-66
2020/12/05 01:21:47;;;;;;;15.00;11.73;;;;;;;4.70;78.11;96516.00;5093333;28;20044;-67
2020/12/05 01:24:14;;;;;;;18.38;12.52;;;;;;;4.66;77.78;96522.66;5093754;28;20044;-66
2020/12/05 01:26:41;;;;;;;16.48;11.55;;;;;;;4.62;78.17;96524.91;5093715;28;20525;-66
2020/12/05 01:29:08;;;;;;;15.35;10.80;;;;;;;4.71;78.43;96528.06;5093014;28;20048;-66
2020/12/05 01:31:35;;;;;;;14.52;11.00;;;;;;;4.83;78.43;96522.97;5093017;28;20047;-66
2020/12/05 01:34:05;;;;;;;15.05;11.20;;;;;;;4.94;77.99;96530.13;5092994;28;20480;-66
2020/12/05 01:36:31;;;;;;;15.13;11.27;;;;;;;5.00;77.98;96534.50;5093423;28;20040;-66
2020/12/05 01:38:58;;;;;;;14.77;10.90;;;;;;;5.05;77.73;96532.06;5092783;28;20059;-66
2020/12/05 01:41:24;;;;;;;16.10;11.68;;;;;;;4.99;77.41;96532.91;5093716;28;20044;-66
2020/12/05 01:43:52;;;;;;;16.02;11.63;;;;;;;5.05;77.63;96546.97;5093813;28;20047;-66
2020/12/05 01:46:36;;;;;;;16.27;11.25;;;;;;;5.10;77.40;96545.34;5097590;28;20055;-66
2020/12/05 01:49:04;;;;;;;16.00;12.07;;;;;;;5.03;77.15;96549.00;5100603;28;20394;-66
2020/12/05 01:51:31;;;;;;;16.35;11.48;;;;;;;4.96;77.61;96547.22;5103294;28;20047;-66
2020/12/05 01:53:59;;;;;;;15.27;11.40;;;;;;;5.07;77.79;96558.84;5092317;28;20472;-66
2020/12/05 01:56:27;;;;;;;16.38;11.40;;;;;;;5.21;77.48;96564.78;5092787;28;20055;-66
2020/12/05 01:58:55;;;;;;;13.40;10.32;;;;;;;5.27;77.11;96565.75;5092191;28;20043;-67
2020/12/05 02:01:24;;;;;;;13.80;9.30;;;;;;;5.33;77.11;96575.38;5092911;28;20044;-66
2020/12/05 02:03:52;;;;;;;13.32;9.60;;;;;;;5.36;76.86;96572.34;5092750;28;20055;-67
2020/12/05 02:06:31;;;;;;;13.95;10.00;;;;;;;5.35;76.40;96576.78;5092713;28;20055;-66
2020/12/05 02:09:05;;;;;;;14.77;8.60;;;;;;;5.31;76.74;96578.22;5091133;28;20056;-66
2020/12/05 02:11:37;;;;;;;9.85;7.88;;;;;;;5.30;76.84;96583.66;5092680;28;20521;-66
2020/12/05 02:14:07;;;;;;;10.77;8.68;;;;;;;5.26;76.79;96583.28;5092647;28;20051;-67
2020/12/05 02:16:35;;;;;;;12.32;9.77;;;;;;;5.34;76.75;96579.59;5091434;28;20044;-66
2020/12/05 02:19:02;;;;;;;11.38;8.77;;;;;;;5.39;76.94;96582.41;5092365;28;20078;-67
2020/12/05 02:21:29;;;;;;;11.70;9.23;;;;;;;5.41;76.66;96580.34;5092298;28;20054;-67
2020/12/05 02:23:57;;;;;;;10.77;8.20;;;;;;;5.39;76.61;96580.56;5092323;28;20071;-66
2020/12/05 02:26:26;;;;;;;10.00;7.82;;;;;;;5.33;76.31;96567.50;5092260;28;20044;-66
2020/12/05 02:28:54;;;;;;;9.40;7.78;;;;;;;5.28;76.42;96567.34;5091868;28;20052;-66
2020/12/05 02:31:21;;;;;;;9.65;7.60;;;;;;;5.30;76.45;96575.78;5092182;28;20040;-67
2020/12/05 02:33:48;;;;;;;9.82;7.93;;;;;;;5.34;76.60;96583.00;5092122;28;20043;-66
2020/12/05 02:36:15;;;;;;;10.50;8.82;;;;;;;5.39;76.59;96588.44;5092072;28;20048;-66
2020/12/05 02:38:47;;;;;;;11.38;8.55;;;;;;;5.47;76.27;96593.41;5091915;28;20588;-67
2020/12/05 02:41:15;;;;;;;10.52;8.82;;;;;;;5.52;76.20;96587.53;5090917;28;20044;-66
2020/12/05 02:43:43;;;;;;;9.63;8.02;;;;;;;5.56;76.28;96593.94;5092008;28;20114;-67
2020/12/05 02:46:09;;;;;;;10.88;8.45;;;;;;;5.61;76.13;96590.66;5090691;28;20051;-67
2020/12/05 02:48:36;;;;;;;13.95;9.07;;;;;;;5.59;75.92;96593.50;5090428;28;20055;-67
2020/12/05 02:51:03;;;;;;;11.73;8.98;;;;;;;5.56;75.97;96601.78;5092572;28;20054;-66
2020/12/05 02:53:29;;;;;;;10.38;8.57;;;;;;;5.58;75.90;96604.19;5092239;28;20044;-67
2020/12/05 02:55:56;;;;;;;11.23;8.30;;;;;;;5.57;75.99;96610.47;5091945;28;20044;-67
2020/12/05 02:58:24;;;;;;;9.82;7.68;;;;;;;5.58;75.94;96627.78;5091964;28;20062;-66
2020/12/05 03:00:50;;;;;;;9.32;7.38;;;;;;;5.60;76.26;96637.03;5091633;28;20048;-67
2020/12/05 03:03:17;;;;;;;10.15;8.00;;;;;;;5.53;75.68;96646.78;5091339;28;20417;-66
2020/12/05 03:05:44;;;;;;;10.05;7.97;;;;;;;5.47;75.74;96648.44;5091781;28;20036;-67
2020/12/05 03:08:10;;;;;;;13.10;8.60;;;;;;;5.41;75.57;96654.50;5091475;28;20044;-67
2020/12/05 03:10:37;;;;;;;10.27;8.20;;;;;;;5.42;75.57;96660.56;5090437;28;20044;-67
2020/12/05 03:13:03;;;;;;;11.82;7.82;;;;;;;5.37;75.50;96658.56;5091777;28;20044;-68
2020/12/05 03:15:31;;;;;;;10.20;8.02;;;;;;;5.32;75.66;96661.03;5091697;28;20059;-66
2020/12/05 03:17:58;;;;;;;9.68;7.28;;;;;;;5.32;75.68;96676.75;5091416;28;20048;-68
2020/12/05 03:20:24;;;;;;;7.35;6.53;;;;;;;5.31;75.23;96676.97;5091546;28;20047;-66
2020/12/05 03:22:51;;;;;;;10.65;6.95;;;;;;;5.29;75.23;96686.84;5091656;28;20048;-66
2020/12/05 03:25:18;;;;;;;8.35;6.45;;;;;;;5.20;75.14;96681.06;5091506;28;20269;-66
2020/12/05 03:27:44;;;;;;;8.05;6.00;;;;;;;5.17;75.47;96695.34;5093025;28;20055;-67
2020/12/05 03:30:11;;;;;;;7.53;6.43;;;;;;;5.20;75.58;96696.78;5095282;28;20051;-67
2020/12/05 03:32:38;;;;;;;8.45;6.13;;;;;;;5.24;75.45;96694.53;5095246;28;20409;-66
2020/12/05 03:35:05;;;;;;;8.00;6.32;;;;;;;5.21;75.04;96698.38;5093942;28;20055;-67
2020/12/05 03:37:32;;;;;;;7.88;6.15;;;;;;;5.15;75.09;96707.88;5094951;28;20374;-66
2020/12/05 03:39:58;;;;;;;7.95;6.53;;;;;;;5.12;75.31;96712.72;5095097;28;20063;-66
2020/12/05 03:42:25;;;;;;;7.75;6.15;;;;;;;5.14;75.40;96716.75;5094979;28;20040;-66
2020/12/05 03:44:52;;;;;;;7.45;6.20;;;;;;;5.12;75.36;96721.38;5094899;28;20051;-67
2020/12/05 03:47:18;;;;;;;9.60;6.15;;;;;;;5.03;75.37;96729.69;5093563;28;20051;-67
2020/12/05 03:49:46;;;;;;;9.35;7.03;;;;;;;5.00;75.48;96730.91;5094820;28;20417;-66
2020/12/05 03:52:12;;;;;;;7.85;6.25;;;;;;;5.00;75.49;96722.25;5094852;28;20509;-67
2020/12/05 03:54:39;;;;;;;9.15;5.80;;;;;;;5.02;75.55;96717.59;5094956;28;20043;-67
2020/12/05 03:57:06;;;;;;;6.38;5.57;;;;;;;5.06;75.47;96726.63;5094670;28;20051;-67
2020/12/05 03:59:32;;;;;;;7.03;5.80;;;;;;;5.08;75.60;96727.25;5094571;28;20520;-67
2020/12/05 04:01:59;;;;;;;6.55;5.38;;;;;;;5.15;75.37;96733.25;5094309;28;20505;-66
2020/12/05 04:04:26;;;;;;;8.20;5.97;;;;;;;5.21;75.13;96733.22;5094530;28;20504;-66
2020/12/05 04:06:54;;;;;;;9.75;5.97;;;;;;;5.19;75.25;96731.84;5094357;28;20119;-67
2020/12/05 04:09:20;;;;;;;6.43;5.20;;;;;;;5.16;75.39;96727.00;5094498;28;20051;-66
2020/12/05 04:11:47;;;;;;;8.48;6.07;;;;;;;5.15;75.35;96728.03;5094371;28;20040;-67
2020/12/05 04:14:14;;;;;;;6.63;5.88;;;;;;;5.04;75.23;96726.84;5093030;28;20044;-67
2020/12/05 04:16:40;;;;;;;6.93;5.80;;;;;;;4.92;75.41;96718.84;5094370;28;20044;-66
2020/12/05 04:19:07;;;;;;;8.70;5.70;;;;;;;4.92;75.27;96729.31;5094004;28;20051;-67
2020/12/05 04:21:34;;;;;;;8.52;5.55;;;;;;;4.86;75.54;96730.16;5094321;28;20085;-66
2020/12/05 04:24:01;;;;;;;8.23;5.22;;;;;;;4.92;75.78;96741.59;5093067;28;20045;-67
2020/12/05 04:26:28;;;;;;;7.25;5.93;;;;;;;4.92;75.52;96759.94;5094291;28;20044;-67
2020/12/05 04:28:55;;;;;;;7.75;6.55;;;;;;;4.94;75.67;96773.63;5093651;28;20374;-67
2020/12/05 04:31:22;;;;;;;6.47;5.45;;;;;;;4.97;75.62;96778.44;5094053;28;20050;-67
2020/12/05 04:33:49;;;;;;;8.80;6.15;;;;;;;4.99;75.68;96780.88;5092924;28;20494;-67
2020/12/05 04:36:15;;;;;;;5.68;5.10;;;;;;;4.95;75.40;96775.25;5094101;28;20063;-68
2020/12/05 04:38:42;;;;;;;6.40;5.32;;;;;;;4.92;75.62;96781.69;5092778;28;20393;-67
2020/12/05 04:41:10;;;;;;;7.20;5.45;;;;;;;4.93;75.45;96785.09;5093968;28;20047;-66
2020/12/05 04:43:37;;;;;;;5.80;4.60;;;;;;;4.87;75.46;96788.56;5092593;28;20062;-67
2020/12/05 04:46:04;;;;;;;5.78;4.60;;;;;;;4.84;75.58;96792.38;5092662;28;20063;-67
2020/12/05 04:48:32;;;;;;;5.88;4.90;;;;;;;4.89;75.52;96784.69;5093520;28;20051;-67
2020/12/05 04:51:02;;;;;;;7.63;5.28;;;;;;;4.97;75.50;96791.53;5093679;28;20145;-66
2020/12/05 04:53:31;;;;;;;5.63;5.00;;;;;;;4.95;75.51;96791.75;5094077;28;20044;-67
2020/12/05 04:55:59;;;;;;;4.97;4.47;;;;;;;5.06;75.50;96790.31;5092297;28;20059;-67
2020/12/05 04:58:28;;;;;;;5.22;4.50;;;;;;;5.11;75.30;96787.06;5093146;28;20490;-67
2020/12/05 05:00:57;;;;;;;5.03;4.45;;;;;;;5.03;75.25;96785.50;5093741;28;20567;-67
2020/12/05 05:03:26;;;;;;;6.78;4.95;;;;;;;4.97;75.23;96802.00;5093413;28;20401;-67
2020/12/05 05:05:55;;;;;;;4.85;4.28;;;;;;;4.96;75.25;96822.16;5092288;28;20502;-66
2020/12/05 05:08:24;;;;;;;7.60;4.20;;;;;;;4.99;75.42;96843.72;5093013;28;20036;-66
2020/12/05 05:11:06;;;;;;;5.10;4.40;;;;;;;4.98;75.36;96858.63;5093629;28;20212;-66
2020/12/05 05:13:48;;;;;;;5.90;4.55;;;;;;;4.99;75.47;96870.72;5092107;28;20048;-66
2020/12/05 05:16:16;;;;;;;6.85;4.55;;;;;;;4.94;75.43;96881.00;5093284;28;20119;-66
2020/12/05 05:18:43;;;;;;;7.03;5.30;;;;;;;4.96;75.47;96899.91;5091518;28;20048;-66
2020/12/05 05:21:09;;;;;;;8.10;5.95;;;;;;;4.96;75.85;96905.94;5093057;28;20043;-66
2020/12/05 05:23:37;;;;;;;9.15;6.03;;;;;;;4.99;75.79;96903.94;5093462;28;20409;-67
2020/12/05 05:26:06;;;;;;;7.45;5.68;;;;;;;4.92;75.53;96902.13;5093233;28;20063;-66
2020/12/05 05:28:37;;;;;;;11.18;6.78;;;;;;;4.85;75.56;96903.13;5092565;28;20051;-67
2020/12/05 05:31:13;;;;;;;8.48;6.18;;;;;;;4.84;75.76;96918.03;5093155;28;20493;-67
2020/12/05 05:33:45;;;;;;;5.00;4.50;;;;;;;4.94;75.79;96917.66;5092973;28;20577;-66
2020/12/05 05:36:21;;;;;;;7.63;5.03;;;;;;;4.90;75.85;96917.25;5092998;28;20044;-66
2020/12/05 05:38:59;;;;;;;5.45;4.88;;;;;;;4.96;75.64;96919.03;5092779;28;20082;-66
2020/12/05 05:41:26;;;;;;;8.05;5.22;;;;;;;4.96;75.59;96915.63;5092968;28;20047;-66
2020/12/05 05:44:01;;;;;;;7.85;5.38;;;;;;;4.93;75.23;96913.41;5092687;28;20047;-67
2020/12/05 05:46:31;;;;;;;7.97;5.68;;;;;;;4.92;75.48;96911.78;5092843;28;20048;-66
2020/12/05 05:48:58;;;;;;;7.65;5.45;;;;;;;4.94;75.56;96913.22;5092513;28;20055;-66
2020/12/05 05:51:39;;;;;;;7.88;4.60;;;;;;;5.01;75.68;96910.56;5092374;28;20044;-67
2020/12/05 05:54:25;;;;;;;5.88;4.40;;;;;;;5.09;75.31;96912.97;5092710;28;20504;-66
2020/12/05 05:56:58;;;;;;;4.78;4.18;;;;;;;5.05;75.44;96913.59;5092367;28;20040;-66
2020/12/05 05:59:28;;;;;;;6.85;5.03;;;;;;;5.06;75.16;96902.09;5092652;28;20048;-67
2020/12/05 06:01:55;;;;;;;5.00;4.18;;;;;;;5.05;75.61;96913.59;5092711;28;20044;-66
2020/12/05 06:04:31;;;;;;;6.90;5.10;;;;;;;5.03;75.19;96911.19;5092435;28;20040;-66
2020/12/05 06:07:00;;;;;;;9.70;6.40;;;;;;;5.05;75.52;96919.63;5092248;28;20044;-66
2020/12/05 06:09:30;;;;;;;7.25;5.35;;;;;;;4.95;75.42;96914.03;5092470;28;20063;-66
2020/12/05 06:11:58;;;;;;;6.43;4.78;;;;;;;4.93;75.80;96908.16;5092418;28;20130;-66
2020/12/05 06:14:26;;;;;;;7.50;5.10;;;;;;;4.93;75.97;96918.63;5092579;28;20505;-66
2020/12/05 06:16:55;;;;;;;8.88;5.82;;;;;;;4.98;76.02;96937.19;5093133;28;20463;-68
2020/12/05 06:19:23;;;;;;;8.60;5.38;;;;;;;5.04;75.93;96949.47;5094887;28;20044;-65
2020/12/05 06:21:56;;;;;;;8.50;5.68;;;;;;;5.03;76.05;96965.38;5095716;28;20044;-66
2020/12/05 06:24:43;;;;;;;5.78;4.65;;;;;;;5.07;75.78;96974.44;5094811;28;20044;-66
2020/12/05 06:27:10;;;;;;;7.93;5.30;;;;;;;5.04;75.73;96972.22;5093441;28;20115;-66
2020/12/05 06:29:39;;;;;;;9.52;5.93;;;;;;;5.05;75.96;96977.25;5092278;28;20054;-66
2020/12/05 06:32:06;;;;;;;9.18;5.60;;;;;;;5.08;75.89;96973.44;5092663;28;20032;-67
2020/12/05 06:34:41;;;;;;;6.78;5.00;;;;;;;5.10;75.65;96985.34;5093046;28;20119;-67
2020/12/05 06:37:10;;;;;;;7.15;5.00;;;;;;;5.13;75.57;96986.72;5092424;28;20043;-68
2020/12/05 06:39:37;;;;;;;8.98;5.50;;;;;;;5.16;75.63;96992.38;5092363;28;20048;-67
2020/12/05 06:42:04;;;;;;;6.70;5.45;;;;;;;5.16;75.82;96997.59;5092338;28;20039;-66
2020/12/05 06:44:38;;;;;;;6.53;5.25;;;;;;;5.17;75.61;97001.03;5092265;28;20040;-67
2020/12/05 06:47:10;;;;;;;5.65;4.75;;;;;;;5.25;75.71;97010.50;5092315;28;20040;-67
2020/12/05 06:49:53;;;;;;;7.60;5.72;;;;;;;5.27;75.19;97014.53;5092303;28;20502;-67
2020/12/05 06:52:36;;;;;;;15.40;9.32;;;;;;;5.22;75.19;97016.94;5092157;28;20044;-67
2020/12/05 06:55:15;;;;;;;6.38;5.35;;;;;;;5.21;75.44;97017.94;5092322;28;20054;-68
2020/12/05 06:57:43;;;;;;;6.78;5.50;;;;;;;5.18;75.51;97023.59;5092413;28;20059;-66
2020/12/05 07:00:22;;;;;;;5.70;5.10;;;;;;;5.16;75.56;97026.41;5091830;28;20047;-66
2020/12/05 07:02:54;;;;;;;12.63;8.00;;;;;;;5.19;75.88;97017.38;5092939;28;20071;-67
2020/12/05 07:05:26;;;;;;;6.75;5.85;;;;;;;5.19;75.71;97022.59;5094662;28;20043;-67
2020/12/05 07:07:54;;;;;;;8.10;6.03;;;;;;;5.08;75.80;97039.72;5095950;28;20509;-67
2020/12/05 07:10:23;;;;;;;7.57;6.03;;;;;;;5.08;76.04;97034.47;5095947;28;20505;-67
2020/12/05 07:12:50;;;;;;;11.00;6.82;;;;;;;5.13;75.85;97032.06;5095959;28;20044;-66
2020/12/05 07:15:22;;;;;;;7.45;5.75;;;;;;;5.19;75.68;97044.34;5095841;28;20221;-66
2020/12/05 07:17:52;;;;;;;10.65;6.80;;;;;;;5.20;76.06;97043.34;5095919;28;20058;-67
2020/12/05 07:20:20;;;;;;;7.95;6.03;;;;;;;5.23;75.83;97055.25;5095960;28;20048;-67
2020/12/05 07:22:49;;;;;;;8.40;6.10;;;;;;;5.18;75.86;97047.16;5096391;28;20622;-67
2020/12/05 07:25:17;;;;;;;7.47;6.10;;;;;;;5.21;76.24;97052.00;5096228;28;20040;-67
2020/12/05 07:27:44;;;;;;;10.98;6.63;;;;;;;5.25;76.06;97044.56;5096074;28;20161;-67
2020/12/05 07:30:11;;;;;;;8.75;6.07;;;;;;;5.28;76.05;97046.78;5096020;28;20101;-67
2020/12/05 07:32:41;;;;;;;7.03;5.80;;;;;;;5.30;75.98;97050.78;5095854;28;20040;-67
2020/12/05 07:35:17;;;;;;;6.80;5.85;;;;;;;5.28;75.93;97065.91;5094657;28;20040;-67
2020/12/05 07:37:47;;;;;;;9.00;5.78;;;;;;;5.27;75.78;97069.56;5095397;28;20498;-67
2020/12/05 07:40:15;;;;;;;14.23;7.82;;;;;;;5.26;75.80;97083.63;5094248;28;20505;-67
2020/12/05 07:42:43;;;;;;;7.68;5.88;;;;;;;5.21;75.80;97099.16;5095507;28;20070;-69
2020/12/05 07:45:14;;;;;;;6.68;5.47;;;;;;;5.17;75.90;97106.59;5095514;28;20036;-68
2020/12/05 07:47:41;;;;;;;6.95;5.53;;;;;;;5.23;75.90;97120.75;5095324;28;20047;-67
2020/12/05 07:50:11;;;;;;;7.80;5.80;;;;;;;5.33;75.79;97128.19;5095405;28;20047;-67
2020/12/05 07:52:43;;;;;;;7.88;5.45;;;;;;;5.36;75.44;97133.84;5095266;28;20053;-67
2020/12/05 07:55:12;;;;;;;7.43;5.40;;;;;;;5.38;75.49;97131.03;5095228;28;20075;-67
2020/12/05 07:57:51;;;;;;;7.80;5.20;;;;;;;5.46;75.70;97123.75;5095094;28;20047;-67
2020/12/05 08:00:22;;;;;;;5.70;4.75;;;;;;;5.48;75.33;97120.97;5094301;28;20080;-68
2020/12/05 08:03:22;;;;;;;9.32;5.88;;;;;;;5.51;75.14;97109.25;5094973;28;20059;-65
2020/12/05 08:05:54;;;;;;;10.43;5.93;;;;;;;5.52;75.03;97100.41;5094655;28;20036;-66
2020/12/05 08:08:28;;;;;;;8.10;5.90;;;;;;;5.48;74.59;97097.38;5094300;28;20048;-66
2020/12/05 08:11:00;;;;;;;16.70;6.90;;;;;;;5.47;74.39;97104.44;5094645;28;20044;-66
2020/12/05 08:13:29;;;;;;;10.38;6.32;;;;;;;5.48;74.64;97115.72;5094406;28;20040;-67
2020/12/05 08:16:02;;;;;;;8.88;6.20;;;;;;;5.52;74.58;97126.63;5093216;28;20067;-68
2020/12/05 08:18:32;;;;;;;19.88;9.05;;;;;;;5.49;74.38;97133.06;5094138;28;20048;-67
2020/12/05 08:21:00;;;;;;;10.93;5.50;;;;;;;5.55;74.58;97123.56;5094516;28;20051;-67
2020/12/05 08:23:29;;;;;;;7.38;4.88;;;;;;;5.64;74.51;97128.44;5094418;28;20070;-67
2020/12/05 08:25:59;;;;;;;6.10;4.50;;;;;;;5.74;74.42;97138.50;5094467;28;20044;-66
2020/12/05 08:28:27;;;;;;;7.18;5.47;;;;;;;5.79;74.24;97120.34;5094009;28;20044;-67
2020/12/05 08:30:55;;;;;;;6.72;5.10;;;;;;;5.82;73.95;97142.72;5094353;28;20080;-67
2020/12/05 08:33:22;;;;;;;8.68;5.97;;;;;;;5.86;73.58;97155.22;5094225;28;20040;-67
2020/12/05 08:35:50;;;;;;;5.28;4.55;;;;;;;5.89;73.16;97160.09;5094214;28;20043;-67
2020/12/05 08:38:24;;;;;;;4.80;4.30;;;;;;;5.84;73.26;97159.88;5092684;28;20101;-67
2020/12/05 08:41:04;;;;;;;9.02;4.07;;;;;;;5.86;73.36;97150.00;5093971;28;20044;-67
2020/12/05 08:43:31;;;;;;;6.03;4.68;;;;;;;5.90;73.28;97160.88;5092730;28;20409;-67
2020/12/05 08:45:57;;;;;;;6.40;4.90;;;;;;;5.92;73.02;97148.41;5092493;28;20055;-67
2020/12/05 08:48:24;;;;;;;4.90;4.15;;;;;;;5.88;72.73;97140.13;5093516;28;20043;-67
2020/12/05 08:50:52;;;;;;;6.22;4.75;;;;;;;5.83;72.68;97154.81;5093973;28;20451;-67
2020/12/05 08:53:21;;;;;;;8.40;5.22;;;;;;;5.82;72.96;97159.28;5092613;28;20035;-67
2020/12/05 08:55:49;;;;;;;14.52;10.15;;;;;;;5.90;72.74;97164.31;5093687;28;20067;-67
2020/12/05 08:58:16;;;;;;;9.77;6.10;;;;;;;6.00;72.49;97158.69;5093620;28;20063;-67
2020/12/05 09:01:13;;;;;;;12.23;8.38;;;;;;;6.01;72.14;97157.69;5096926;28;20044;-67
2020/12/05 09:03:40;;;;;;;8.48;4.47;;;;;;;5.95;72.16;97161.91;5081080;28;20399;-66
2020/12/05 09:06:08;;;;;;;4.97;4.00;;;;;;;5.87;72.08;97169.94;5093333;28;20051;-68
2020/12/05 09:08:35;;;;;;;5.50;4.75;;;;;;;5.90;72.09;97181.88;5093093;28;20040;-68
2020/12/05 09:11:02;;;;;;;4.80;4.22;;;;;;;5.95;72.06;97176.84;5093505;28;20040;-67
2020/12/05 09:13:29;;;;;;;5.60;4.75;;;;;;;5.90;71.55;97197.59;5093367;28;20040;-67
2020/12/05 09:15:58;;;;;;;5.32;4.55;;;;;;;5.83;71.48;97194.97;5093335;28;20073;-67
2020/12/05 09:18:25;;;;;;;4.72;4.22;;;;;;;5.75;71.55;97192.53;5092916;28;20051;-67
2020/12/05 09:20:53;;;;;;;4.80;4.30;;;;;;;5.74;71.60;97198.00;5091954;28;20048;-67
2020/12/05 09:23:30;;;;;;;5.65;4.20;;;;;;;5.75;71.72;97192.53;5093152;28;20040;-67
2020/12/05 09:26:01;;;;;;;6.20;4.78;;;;;;;5.79;71.87;97175.41;5092348;28;20468;-68
2020/12/05 09:28:28;;;;;;;5.57;4.28;;;;;;;5.77;71.60;97171.38;5092784;28;20059;-68
2020/12/05 09:30:55;;;;;;;5.32;3.97;;;;;;;5.77;71.65;97158.28;5093088;28;20467;-67
2020/12/05 09:33:22;;;;;;;5.15;4.18;;;;;;;5.84;71.70;97159.09;5092982;28;20044;-67
2020/12/05 09:35:50;;;;;;;6.03;4.47;;;;;;;5.92;71.53;97159.72;5092916;28;20048;-67
2020/12/05 09:38:17;;;;;;;5.50;4.40;;;;;;;5.94;71.37;97143.75;5092580;28;20044;-67
2020/12/05 09:40:44;;;;;;;8.23;5.55;;;;;;;5.98;71.42;97149.41;5092827;28;20434;-67
2020/12/05 09:43:12;;;;;;;7.45;5.32;;;;;;;5.94;71.42;97149.00;5093233;28;20051;-68
2020/12/05 09:45:39;;;;;;;5.03;4.25;;;;;;;5.94;71.24;97149.81;5091408;28;20047;-67
2020/12/05 09:48:06;;;;;;;5.60;4.13;;;;;;;5.90;70.85;97160.88;5092591;28;20331;-68
2020/12/05 09:50:33;;;;;;;4.30;3.63;;;;;;;5.85;70.74;97163.31;5092642;28;20044;-68
2020/12/05 09:53:00;;;;;;;6.30;4.28;;;;;;;5.87;71.37;97166.53;5093006;28;20516;-69
2020/12/05 09:55:28;;;;;;;6.53;5.10;;;;;;;5.96;71.29;97168.00;5092813;28;20043;-68
2020/12/05 09:57:56;;;;;;;5.53;4.15;;;;;;;5.99;70.56;97175.44;5092629;28;20051;-68
2020/12/05 10:00:23;;;;;;;4.97;4.30;;;;;;;5.95;70.35;97167.16;5092356;28;20051;-67
2020/12/05 10:02:50;;;;;;;4.63;4.05;;;;;;;5.93;70.28;97165.75;5091192;28;20085;-66
2020/12/05 10:05:17;;;;;;;4.88;4.03;;;;;;;5.83;69.99;97175.81;5091061;28;20498;-66
2020/12/05 10:07:44;;;;;;;4.88;4.30;;;;;;;5.85;70.07;97173.81;5091982;28;20379;-66
2020/12/05 10:10:11;;;;;;;4.95;3.80;;;;;;;5.98;69.86;97189.56;5092614;28;20044;-69
2020/12/05 10:12:38;;;;;;;4.28;3.65;;;;;;;6.07;69.59;97190.97;5092164;28;20047;-65
2020/12/05 10:15:06;;;;;;;5.50;4.32;;;;;;;6.18;69.45;97197.41;5092381;28;20043;-66
2020/12/05 10:17:33;;;;;;;3.50;3.20;;;;;;;6.18;69.35;97197.41;5090942;28;20089;-66
2020/12/05 10:20:00;;;;;;;6.60;4.57;;;;;;;6.26;69.34;97191.97;5092524;28;20414;-66
2020/12/05 10:22:27;;;;;;;6.32;4.55;;;;;;;6.32;69.53;97204.25;5092509;28;20034;-67
2020/12/05 10:24:53;;;;;;;3.47;3.17;;;;;;;6.40;68.94;97201.41;5092347;28;20059;-65
2020/12/05 10:27:20;;;;;;;5.18;4.03;;;;;;;6.45;68.92;97198.19;5092116;28;20040;-65
2020/12/05 10:29:47;;;;;;;4.90;3.90;;;;;;;6.48;68.57;97205.63;5092177;28;20040;-65
2020/12/05 10:32:14;;;;;;;6.05;3.65;;;;;;;6.54;68.77;97219.78;5090994;28;20048;-65
2020/12/05 10:34:41;;;;;;;7.25;4.05;;;;;;;6.58;68.80;97227.03;5092497;28;20047;-66
2020/12/05 10:37:08;;;;;;;5.72;4.03;;;;;;;6.65;68.19;97227.00;5094918;28;20455;-65
2020/12/05 10:39:34;;;;;;;5.47;4.30;;;;;;;6.57;67.66;97243.81;5096391;28;20044;-66
2020/12/05 10:42:01;;;;;;;4.03;3.60;;;;;;;6.65;67.84;97240.97;5096848;28;20417;-67
2020/12/05 10:44:28;;;;;;;4.47;3.53;;;;;;;6.66;68.07;97253.06;5096700;28;20105;-65
2020/12/05 10:46:55;;;;;;;4.03;3.33;;;;;;;6.76;67.92;97252.63;5095910;28;20067;-67
2020/12/05 10:49:23;;;;;;;4.32;3.92;;;;;;;6.80;67.43;97242.53;5096593;28;20044;-66
2020/12/05 10:51:50;;;;;;;4.32;3.45;;;;;;;6.70;66.98;97253.47;5096167;28;20040;-66
2020/12/05 10:54:17;;;;;;;4.38;3.97;;;;;;;6.61;67.21;97268.66;5097524;28;20047;-65
2020/12/05 10:56:43;;;;;;;5.82;4.00;;;;;;;6.51;67.07;97257.75;5104459;28;20044;-67
2020/12/05 10:59:10;;;;;;;4.20;3.30;;;;;;;6.49;67.10;97251.06;5104508;28;20048;-66
2020/12/05 11:01:40;;;;;;;4.28;3.53;;;;;;;6.54;66.85;97253.91;5098004;28;20461;-65
2020/12/05 11:04:07;;;;;;;3.03;2.78;;;;;;;6.63;66.39;97252.69;5096165;28;20048;-66
2020/12/05 11:06:35;;;;;;;5.72;3.17;;;;;;;6.56;66.64;97265.00;5094620;28;20048;-67
2020/12/05 11:09:01;;;;;;;6.22;4.38;;;;;;;6.57;66.63;97258.72;5095686;28;20059;-65
2020/12/05 11:11:28;;;;;;;6.55;3.90;;;;;;;6.48;66.61;97260.75;5094844;28;20501;-66
2020/12/05 11:13:55;;;;;;;15.38;8.18;;;;;;;6.46;67.01;97252.31;5096036;28;20461;-66
2020/12/05 11:16:24;;;;;;;6.65;5.38;;;;;;;6.56;67.06;97242.16;5094581;28;20101;-67
2020/12/05 11:18:52;;;;;;;5.75;4.32;;;;;;;6.65;66.71;97251.47;5095638;28;20040;-66
2020/12/05 11:21:19;;;;;;;4.10;3.47;;;;;;;6.72;66.72;97267.19;5094389;28;20494;-66
2020/12/05 11:23:47;;;;;;;3.95;3.55;;;;;;;6.79;65.64;97265.38;5095926;28;20127;-66
2020/12/05 11:26:19;;;;;;;5.72;3.47;;;;;;;6.69;65.53;97265.81;5094212;28;20048;-66
2020/12/05 11:28:46;;;;;;;3.13;2.83;;;;;;;6.69;65.46;97273.69;5094304;28;20071;-66
2020/12/05 11:31:13;;;;;;;2.67;2.47;;;;;;;6.72;65.86;97274.28;5095513;28;20036;-66
2020/12/05 11:33:40;;;;;;;8.90;3.95;;;;;;;6.84;66.42;97277.88;5095481;28;20048;-66
2020/12/05 11:36:07;;;;;;;3.28;2.97;;;;;;;6.85;66.18;97269.78;5094046;28;20558;-67
2020/12/05 11:38:33;;;;;;;6.90;4.57;;;;;;;6.93;65.66;97258.25;5094905;28;20047;-67
2020/12/05 11:41:01;;;;;;;5.57;4.20;;;;;;;6.95;65.14;97264.91;5095572;28;20405;-67
2020/12/05 11:43:28;;;;;;;2.78;2.33;;;;;;;6.94;65.32;97271.19;5095159;28;20055;-67
2020/12/05 11:45:55;;;;;;;2.47;2.28;;;;;;;6.95;64.79;97253.59;5093913;28;20486;-68